sensor_id;sensor_type;location;lat;lon;timestamp;pressure;altitude;pressure_sealevel;temperature;humidity
54910;BME280;63189;51.240;9.964;2024-01-10T00:01:25;99279.41;;;-8.52;83.04
54910;BME280;63189;51.240;9.964;2024-01-10T00:03:53;99279.31;;;-8.53;82.13
54910;BME280;63189;51.240;9.964;2024-01-10T00:06:19;99269.38;;;-8.50;81.50
54910;BME280;63189;51.240;9.964;2024-01-10T00:08:44;99274.63;;;-8.47;81.43
54910;BME280;63189;51.240;9.964;2024-01-10T00:11:09;99257.03;;;-8.46;81.66
54910;BME280;63189;51.240;9.964;2024-01-10T00:13:35;99264.94;;;-8.41;81.09
54910;BME280;63189;51.240;9.964;2024-01-10T00:16:00;99266.78;;;-8.38;81.02
54910;BME280;63189;51.240;9.964;2024-01-10T00:18:26;99249.84;;;-8.39;80.67
54910;BME280;63189;51.240;9.964;2024-01-10T00:20:51;99250.81;;;-8.37;81.58
54910;BME280;63189;51.240;9.964;2024-01-10T00:23:20;99252.38;;;-8.39;81.46
54910;BME280;63189;51.240;9.964;2024-01-10T00:25:46;99242.06;;;-8.42;81.48
54910;BME280;63189;51.240;9.964;2024-01-10T00:28:12;99246.91;;;-8.46;81.79
54910;BME280;63189;51.240;9.964;2024-01-10T00:30:38;99238.19;;;-8.51;82.29
54910;BME280;63189;51.240;9.964;2024-01-10T00:33:03;99246.03;;;-8.46;82.12
54910;BME280;63189;51.240;9.964;2024-01-10T00:35:29;99233.81;;;-8.53;82.26
54910;BME280;63189;51.240;9.964;2024-01-10T00:37:54;99229.41;;;-8.56;81.99
54910;BME280;63189;51.240;9.964;2024-01-10T00:40:19;99222.59;;;-8.57;82.68
54910;BME280;63189;51.240;9.964;2024-01-10T00:42:45;99230.78;;;-8.61;82.55
54910;BME280;63189;51.240;9.964;2024-01-10T00:45:10;99223.97;;;-8.62;82.63
54910;BME280;63189;51.240;9.964;2024-01-10T00:47:35;99225.13;;;-8.70;82.99
54910;BME280;63189;51.240;9.964;2024-01-10T00:50:00;99226.69;;;-8.72;82.92
54910;BME280;63189;51.240;9.964;2024-01-10T00:52:26;99219.66;;;-8.76;83.56
54910;BME280;63189;51.240;9.964;2024-01-10T00:54:51;99222.56;;;-8.83;83.80
54910;BME280;63189;51.240;9.964;2024-01-10T00:57:16;99224.50;;;-8.92;84.24
54910;BME280;63189;51.240;9.964;2024-01-10T00:59:41;99217.28;;;-8.86;84.36
54910;BME280;63189;51.240;9.964;2024-01-10T01:02:07;99222.56;;;-8.83;83.74
54910;BME280;63189;51.240;9.964;2024-01-10T01:04:32;99210.91;;;-8.81;83.64
54910;BME280;63189;51.240;9.964;2024-01-10T01:06:57;99205.06;;;-8.80;84.29
54910;BME280;63189;51.240;9.964;2024-01-10T01:09:23;99203.75;;;-8.75;83.32
54910;BME280;63189;51.240;9.964;2024-01-10T01:11:48;99207.50;;;-8.68;83.25
54910;BME280;63189;51.240;9.964;2024-01-10T01:14:13;99212.97;;;-8.62;83.43
54910;BME280;63189;51.240;9.964;2024-01-10T01:16:38;99210.34;;;-8.64;82.44
54910;BME280;63189;51.240;9.964;2024-01-10T01:19:04;99211.31;;;-8.62;82.41
54910;BME280;63189;51.240;9.964;2024-01-10T01:21:29;99212.09;;;-8.63;82.35
54910;BME280;63189;51.240;9.964;2024-01-10T01:23:54;99219.78;;;-8.61;83.18
54910;BME280;63189;51.240;9.964;2024-01-10T01:26:20;99220.66;;;-8.61;82.47
54910;BME280;63189;51.240;9.964;2024-01-10T01:28:45;99211.88;;;-8.66;83.01
54910;BME280;63189;51.240;9.964;2024-01-10T01:31:10;99212.66;;;-8.67;82.92
54910;BME280;63189;51.240;9.964;2024-01-10T01:33:35;99209.06;;;-8.70;83.19
54910;BME280;63189;51.240;9.964;2024-01-10T01:36:01;99205.34;;;-8.76;83.06
54910;BME280;63189;51.240;9.964;2024-01-10T01:38:26;99205.06;;;-8.80;83.05
54910;BME280;63189;51.240;9.964;2024-01-10T01:40:52;99206.03;;;-8.91;83.13
54910;BME280;63189;51.240;9.964;2024-01-10T01:43:22;99196.69;;;-8.92;82.54
54910;BME280;63189;51.240;9.964;2024-01-10T01:45:50;99210.13;;;-8.93;82.54
54910;BME280;63189;51.240;9.964;2024-01-10T01:48:16;99200.00;;;-8.93;81.76
54910;BME280;63189;51.240;9.964;2024-01-10T01:50:42;99204.09;;;-8.95;83.03
54910;BME280;63189;51.240;9.964;2024-01-10T01:53:07;99197.94;;;-8.99;83.21
54910;BME280;63189;51.240;9.964;2024-01-10T01:55:33;99198.53;;;-9.03;83.39
54910;BME280;63189;51.240;9.964;2024-01-10T01:57:58;99194.72;;;-9.10;83.79
54910;BME280;63189;51.240;9.964;2024-01-10T02:00:23;99201.22;;;-9.13;83.47
54910;BME280;63189;51.240;9.964;2024-01-10T02:02:49;99203.41;;;-9.18;84.22
54910;BME280;63189;51.240;9.964;2024-01-10T02:05:15;99202.53;;;-9.18;83.64
54910;BME280;63189;51.240;9.964;2024-01-10T02:07:41;99195.47;;;-9.24;84.61
54910;BME280;63189;51.240;9.964;2024-01-10T02:10:06;99207.41;;;-9.21;84.56
54910;BME280;63189;51.240;9.964;2024-01-10T02:12:32;99203.41;;;-9.18;84.11
54910;BME280;63189;51.240;9.964;2024-01-10T02:14:57;99195.56;;;-9.22;83.78
54910;BME280;63189;51.240;9.964;2024-01-10T02:17:23;99199.16;;;-9.19;83.42
54910;BME280;63189;51.240;9.964;2024-01-10T02:19:48;99195.75;;;-9.19;84.13
54910;BME280;63189;51.240;9.964;2024-01-10T02:22:13;99193.44;;;-9.16;83.82
54910;BME280;63189;51.240;9.964;2024-01-10T02:24:39;99191.78;;;-9.16;83.83
54910;BME280;63189;51.240;9.964;2024-01-10T02:27:04;99192.25;;;-9.21;83.30
54910;BME280;63189;51.240;9.964;2024-01-10T02:29:30;99177.16;;;-9.33;83.71
54910;BME280;63189;51.240;9.964;2024-01-10T02:31:55;99191.19;;;-9.25;83.15
54910;BME280;63189;51.240;9.964;2024-01-10T02:34:21;99182.63;;;-9.27;83.90
54910;BME280;63189;51.240;9.964;2024-01-10T02:36:48;99179.59;;;-9.35;83.18
54910;BME280;63189;51.240;9.964;2024-01-10T02:39:14;99181.69;;;-9.41;83.13
54910;BME280;63189;51.240;9.964;2024-01-10T02:41:39;99171.50;;;-9.42;84.14
54910;BME280;63189;51.240;9.964;2024-01-10T02:44:04;99186.44;;;-9.45;85.32
54910;BME280;63189;51.240;9.964;2024-01-10T02:46:29;99186.66;;;-9.42;86.02
54910;BME280;63189;51.240;9.964;2024-01-10T02:48:55;99193.88;;;-9.35;86.39
54910;BME280;63189;51.240;9.964;2024-01-10T02:51:21;99188.34;;;-9.29;86.59
54910;BME280;63189;51.240;9.964;2024-01-10T02:53:47;99178.47;;;-9.26;86.69
54910;BME280;63189;51.240;9.964;2024-01-10T02:56:12;99182.84;;;-9.24;85.85
54910;BME280;63189;51.240;9.964;2024-01-10T02:58:37;99187.41;;;-9.18;86.17
54910;BME280;63189;51.240;9.964;2024-01-10T03:01:02;99181.56;;;-9.17;86.13
54910;BME280;63189;51.240;9.964;2024-01-10T03:03:28;99179.16;;;-9.16;85.79
54910;BME280;63189;51.240;9.964;2024-01-10T03:05:53;99171.59;;;-9.16;86.41
54910;BME280;63189;51.240;9.964;2024-01-10T03:08:19;99174.13;;;-9.16;85.84
54910;BME280;63189;51.240;9.964;2024-01-10T03:10:44;99176.06;;;-9.12;85.41
54910;BME280;63189;51.240;9.964;2024-01-10T03:13:09;99172.38;;;-9.17;85.47
54910;BME280;63189;51.240;9.964;2024-01-10T03:15:35;99162.03;;;-9.20;85.77
54910;BME280;63189;51.240;9.964;2024-01-10T03:18:00;99160.47;;;-9.18;85.63
54910;BME280;63189;51.240;9.964;2024-01-10T03:20:25;99156.22;;;-9.19;85.51
54910;BME280;63189;51.240;9.964;2024-01-10T03:22:50;99152.72;;;-9.21;85.50
54910;BME280;63189;51.240;9.964;2024-01-10T03:25:16;99153.41;;;-9.23;85.84
54910;BME280;63189;51.240;9.964;2024-01-10T03:27:41;99155.16;;;-9.22;85.70
54910;BME280;63189;51.240;9.964;2024-01-10T03:30:07;99157.78;;;-9.21;85.56
54910;BME280;63189;51.240;9.964;2024-01-10T03:32:32;99150.50;;;-9.16;85.82
54910;BME280;63189;51.240;9.964;2024-01-10T03:34:57;99152.16;;;-9.17;85.00
54910;BME280;63189;51.240;9.964;2024-01-10T03:37:23;99153.13;;;-9.15;85.46
54910;BME280;63189;51.240;9.964;2024-01-10T03:39:48;99152.44;;;-9.12;85.40
54910;BME280;63189;51.240;9.964;2024-01-10T03:42:13;99151.84;;;-9.08;85.63
54910;BME280;63189;51.240;9.964;2024-01-10T03:44:40;99159.94;;;-9.14;85.11
54910;BME280;63189;51.240;9.964;2024-01-10T03:47:06;99148.44;;;-9.22;85.12
54910;BME280;63189;51.240;9.964;2024-01-10T03:49:31;99138.94;;;-9.26;85.38
54910;BME280;63189;51.240;9.964;2024-01-10T03:51:57;99142.22;;;-9.27;84.83
54910;BME280;63189;51.240;9.964;2024-01-10T03:54:22;99146.59;;;-9.24;84.93
54910;BME280;63189;51.240;9.964;2024-01-10T03:56:47;99148.34;;;-9.23;84.73
54910;BME280;63189;51.240;9.964;2024-01-10T03:59:13;99137.94;;;-9.28;85.16
54910;BME280;63189;51.240;9.964;2024-01-10T04:01:38;99143.56;;;-9.32;85.52
54910;BME280;63189;51.240;9.964;2024-01-10T04:04:04;99145.41;;;-9.29;85.07
54910;BME280;63189;51.240;9.964;2024-01-10T04:06:30;99136.97;;;-9.30;85.12
54910;BME280;63189;51.240;9.964;2024-01-10T04:08:55;99141.13;;;-9.31;85.23
54910;BME280;63189;51.240;9.964;2024-01-10T04:11:20;99135.03;;;-9.34;85.54
54910;BME280;63189;51.240;9.964;2024-01-10T04:13:46;99148.63;;;-9.32;84.76
54910;BME280;63189;51.240;9.964;2024-01-10T04:16:11;99142.88;;;-9.29;85.70
54910;BME280;63189;51.240;9.964;2024-01-10T04:18:37;99148.72;;;-9.31;85.29
54910;BME280;63189;51.240;9.964;2024-01-10T04:21:02;99138.69;;;-9.29;85.75
54910;BME280;63189;51.240;9.964;2024-01-10T04:23:27;99142.78;;;-9.31;85.38
54910;BME280;63189;51.240;9.964;2024-01-10T04:25:53;99140.84;;;-9.35;84.99
54910;BME280;63189;51.240;9.964;2024-01-10T04:28:19;99144.25;;;-9.35;85.43
54910;BME280;63189;51.240;9.964;2024-01-10T04:30:44;99151.91;;;-9.33;85.54
54910;BME280;63189;51.240;9.964;2024-01-10T04:33:09;99151.81;;;-9.35;85.21
54910;BME280;63189;51.240;9.964;2024-01-10T04:35:35;99149.56;;;-9.43;85.71
54910;BME280;63189;51.240;9.964;2024-01-10T04:38:00;99150.13;;;-9.47;85.57
54910;BME280;63189;51.240;9.964;2024-01-10T04:40:25;99147.63;;;-9.47;85.86
54910;BME280;63189;51.240;9.964;2024-01-10T04:42:51;99144.00;;;-9.51;86.32
54910;BME280;63189;51.240;9.964;2024-01-10T04:45:16;99139.72;;;-9.52;86.08
54910;BME280;63189;51.240;9.964;2024-01-10T04:47:41;99145.72;;;-9.50;86.55
54910;BME280;63189;51.240;9.964;2024-01-10T04:50:07;99144.75;;;-9.52;86.51
54910;BME280;63189;51.240;9.964;2024-01-10T04:52:33;99157.47;;;-9.50;86.69
54910;BME280;63189;51.240;9.964;2024-01-10T04:54:58;99147.97;;;-9.54;87.28
54910;BME280;63189;51.240;9.964;2024-01-10T04:57:23;99141.06;;;-9.57;86.71
54910;BME280;63189;51.240;9.964;2024-01-10T04:59:49;99156.59;;;-9.51;87.24
54910;BME280;63189;51.240;9.964;2024-01-10T05:02:14;99160.00;;;-9.50;87.13
54910;BME280;63189;51.240;9.964;2024-01-10T05:04:40;99145.25;;;-9.57;87.60
54910;BME280;63189;51.240;9.964;2024-01-10T05:07:38;99155.84;;;-9.50;87.58
54910;BME280;63189;51.240;9.964;2024-01-10T05:10:04;99133.84;;;-9.64;86.91
54910;BME280;63189;51.240;9.964;2024-01-10T05:12:30;99138.44;;;-9.58;87.37
54910;BME280;63189;51.240;9.964;2024-01-10T05:14:55;99157.72;;;-9.47;87.46
54910;BME280;63189;51.240;9.964;2024-01-10T05:17:20;99160.34;;;-9.46;87.17
54910;BME280;63189;51.240;9.964;2024-01-10T05:19:46;99158.09;;;-9.41;87.85
54910;BME280;63189;51.240;9.964;2024-01-10T05:22:11;99145.56;;;-9.40;87.83
54910;BME280;63189;51.240;9.964;2024-01-10T05:24:36;99151.72;;;-9.36;87.40
54910;BME280;63189;51.240;9.964;2024-01-10T05:27:02;99150.72;;;-9.38;87.56
54910;BME280;63189;51.240;9.964;2024-01-10T05:29:28;99158.09;;;-9.41;87.29
54910;BME280;63189;51.240;9.964;2024-01-10T05:31:53;99140.31;;;-9.43;87.06
54910;BME280;63189;51.240;9.964;2024-01-10T05:34:18;99146.16;;;-9.44;87.25
54910;BME280;63189;51.240;9.964;2024-01-10T05:36:44;99144.09;;;-9.49;87.80
54910;BME280;63189;51.240;9.964;2024-01-10T05:39:09;99142.56;;;-9.47;87.41
54910;BME280;63189;51.240;9.964;2024-01-10T05:41:34;99146.75;;;-9.48;87.66
54910;BME280;63189;51.240;9.964;2024-01-10T05:43:59;99150.13;;;-9.47;87.40
54910;BME280;63189;51.240;9.964;2024-01-10T05:46:25;99145.84;;;-9.48;88.27
54910;BME280;63189;51.240;9.964;2024-01-10T05:48:51;99145.63;;;-9.51;88.62
54910;BME280;63189;51.240;9.964;2024-01-10T05:51:16;99145.63;;;-9.51;87.99
54910;BME280;63189;51.240;9.964;2024-01-10T05:53:41;99137.19;;;-9.52;87.92
54910;BME280;63189;51.240;9.964;2024-01-10T05:56:06;99144.09;;;-9.49;88.67
54910;BME280;63189;51.240;9.964;2024-01-10T05:58:32;99142.56;;;-9.47;88.48
54910;BME280;63189;51.240;9.964;2024-01-10T06:00:57;99143.72;;;-9.42;87.96
54910;BME280;63189;51.240;9.964;2024-01-10T06:03:23;99144.69;;;-9.40;87.81
54910;BME280;63189;51.240;9.964;2024-01-10T06:05:49;99143.28;;;-9.37;88.35
54910;BME280;63189;51.240;9.964;2024-01-10T06:08:15;99138.22;;;-9.37;88.54
54910;BME280;63189;51.240;9.964;2024-01-10T06:10:40;99135.56;;;-9.38;88.31
54910;BME280;63189;51.240;9.964;2024-01-10T06:13:06;99138.31;;;-9.35;87.80
54910;BME280;63189;51.240;9.964;2024-01-10T06:15:31;99140.84;;;-9.35;87.65
54910;BME280;63189;51.240;9.964;2024-01-10T06:17:56;99137.22;;;-9.39;87.59
54910;BME280;63189;51.240;9.964;2024-01-10T06:20:21;99134.59;;;-9.40;87.43
54910;BME280;63189;51.240;9.964;2024-01-10T06:22:47;99131.53;;;-9.36;87.87
54910;BME280;63189;51.240;9.964;2024-01-10T06:25:12;99119.78;;;-9.36;87.42
54910;BME280;63189;51.240;9.964;2024-01-10T06:27:38;99127.25;;;-9.37;87.90
54910;BME280;63189;51.240;9.964;2024-01-10T06:30:04;99129.78;;;-9.37;87.66
54910;BME280;63189;51.240;9.964;2024-01-10T06:32:30;99135.47;;;-9.40;88.04
54910;BME280;63189;51.240;9.964;2024-01-10T06:34:55;99138.59;;;-9.44;87.72
54910;BME280;63189;51.240;9.964;2024-01-10T06:37:20;99137.22;;;-9.39;87.69
54910;BME280;63189;51.240;9.964;2024-01-10T06:39:46;99137.91;;;-9.41;87.59
54910;BME280;63189;51.240;9.964;2024-01-10T06:42:11;99139.25;;;-9.46;88.29
54910;BME280;63189;51.240;9.964;2024-01-10T06:44:37;99142.94;;;-9.41;87.72
54910;BME280;63189;51.240;9.964;2024-01-10T06:47:03;99145.66;;;-9.38;87.96
54910;BME280;63189;51.240;9.964;2024-01-10T06:49:31;99140.53;;;-9.40;88.01
54910;BME280;63189;51.240;9.964;2024-01-10T06:51:56;99140.22;;;-9.44;87.35
54910;BME280;63189;51.240;9.964;2024-01-10T06:54:22;99151.31;;;-9.42;87.47
54910;BME280;63189;51.240;9.964;2024-01-10T06:56:47;99147.91;;;-9.43;88.26
54910;BME280;63189;51.240;9.964;2024-01-10T06:59:12;99143.72;;;-9.42;87.75
54910;BME280;63189;51.240;9.964;2024-01-10T07:01:38;99142.19;;;-9.40;87.37
54910;BME280;63189;51.240;9.964;2024-01-10T07:04:04;99140.13;;;-9.46;87.13
54910;BME280;63189;51.240;9.964;2024-01-10T07:06:30;99143.63;;;-9.44;87.45
54910;BME280;63189;51.240;9.964;2024-01-10T07:08:55;99142.84;;;-9.43;87.43
54910;BME280;63189;51.240;9.964;2024-01-10T07:11:20;99146.94;;;-9.45;87.57
54910;BME280;63189;51.240;9.964;2024-01-10T07:13:46;99151.09;;;-9.45;87.50
54910;BME280;63189;51.240;9.964;2024-01-10T07:16:11;99150.34;;;-9.44;87.88
54910;BME280;63189;51.240;9.964;2024-01-10T07:18:40;99159.47;;;-9.46;87.25
54910;BME280;63189;51.240;9.964;2024-01-10T07:21:05;99162.75;;;-9.47;87.51
54910;BME280;63189;51.240;9.964;2024-01-10T07:23:30;99151.78;;;-9.48;87.56
54910;BME280;63189;51.240;9.964;2024-01-10T07:25:57;99156.84;;;-9.48;87.67
54910;BME280;63189;51.240;9.964;2024-01-10T07:28:22;99162.75;;;-9.47;88.09
54910;BME280;63189;51.240;9.964;2024-01-10T07:30:48;99164.50;;;-9.46;87.41
54910;BME280;63189;51.240;9.964;2024-01-10T07:33:13;99161.41;;;-9.42;87.46
54910;BME280;63189;51.240;9.964;2024-01-10T07:35:38;99169.94;;;-9.40;86.83
54910;BME280;63189;51.240;9.964;2024-01-10T07:38:07;99171.06;;;-9.37;86.71
54910;BME280;63189;51.240;9.964;2024-01-10T07:40:35;99173.97;;;-9.31;86.66
54910;BME280;63189;51.240;9.964;2024-01-10T07:43:01;99169.00;;;-9.29;86.48
54910;BME280;63189;51.240;9.964;2024-01-10T07:45:27;99173.97;;;-9.31;85.96
54910;BME280;63189;51.240;9.964;2024-01-10T07:47:52;99188.06;;;-9.21;86.64
54910;BME280;63189;51.240;9.964;2024-01-10T07:50:18;99182.06;;;-9.23;86.58
54910;BME280;63189;51.240;9.964;2024-01-10T07:52:44;99176.81;;;-9.26;87.44
54910;BME280;63189;51.240;9.964;2024-01-10T07:55:11;99177.97;;;-9.21;87.40
54910;BME280;63189;51.240;9.964;2024-01-10T07:57:36;99181.47;;;-9.19;87.46
54910;BME280;63189;51.240;9.964;2024-01-10T08:00:05;99178.94;;;-9.19;87.47
54910;BME280;63189;51.240;9.964;2024-01-10T08:02:33;99178.50;;;-9.13;86.79
54910;BME280;63189;51.240;9.964;2024-01-10T08:05:00;99182.06;;;-9.10;86.38
54910;BME280;63189;51.240;9.964;2024-01-10T08:07:25;99186.00;;;-9.02;85.87
54910;BME280;63189;51.240;9.964;2024-01-10T08:09:50;99183.66;;;-8.98;85.48
54910;BME280;63189;51.240;9.964;2024-01-10T08:12:16;99173.88;;;-8.94;86.21
54910;BME280;63189;51.240;9.964;2024-01-10T08:14:42;99183.56;;;-8.87;86.29
54910;BME280;63189;51.240;9.964;2024-01-10T08:17:11;99177.97;;;-8.83;85.96
54910;BME280;63189;51.240;9.964;2024-01-10T08:19:36;99175.72;;;-8.78;85.78
54910;BME280;63189;51.240;9.964;2024-01-10T08:22:03;99177.56;;;-8.76;85.98
54910;BME280;63189;51.240;9.964;2024-01-10T08:24:28;99175.44;;;-8.69;86.58
54910;BME280;63189;51.240;9.964;2024-01-10T08:26:53;99174.88;;;-8.52;85.42
54910;BME280;63189;51.240;9.964;2024-01-10T08:29:19;99155.25;;;-8.28;84.89
54910;BME280;63189;51.240;9.964;2024-01-10T08:31:45;99156.00;;;-8.16;83.75
54910;BME280;63189;51.240;9.964;2024-01-10T08:34:10;99170.75;;;-7.96;82.81
54910;BME280;63189;51.240;9.964;2024-01-10T08:36:36;99166.66;;;-7.80;82.21
54910;BME280;63189;51.240;9.964;2024-01-10T08:39:02;99168.59;;;-7.34;81.18
54910;BME280;63189;51.240;9.964;2024-01-10T08:41:28;99162.16;;;-6.70;79.78
54910;BME280;63189;51.240;9.964;2024-01-10T08:43:54;99159.22;;;-6.00;79.08
54910;BME280;63189;51.240;9.964;2024-01-10T08:46:19;99161.53;;;-5.40;75.83
54910;BME280;63189;51.240;9.964;2024-01-10T08:48:45;99156.13;;;-4.79;74.81
54910;BME280;63189;51.240;9.964;2024-01-10T08:51:12;99163.09;;;-4.40;73.79
54910;BME280;63189;51.240;9.964;2024-01-10T08:53:41;99160.28;;;-3.73;72.20
54910;BME280;63189;51.240;9.964;2024-01-10T08:56:06;99157.53;;;-3.39;70.38
54910;BME280;63189;51.240;9.964;2024-01-10T08:58:31;99157.09;;;-2.90;68.32
54910;BME280;63189;51.240;9.964;2024-01-10T09:00:57;99152.81;;;-2.49;67.24
54910;BME280;63189;51.240;9.964;2024-01-10T09:03:22;99157.50;;;-2.17;65.95
54910;BME280;63189;51.240;9.964;2024-01-10T09:05:47;99153.13;;;-1.75;64.70
54910;BME280;63189;51.240;9.964;2024-01-10T09:08:13;99153.59;;;-1.38;62.85
54910;BME280;63189;51.240;9.964;2024-01-10T09:10:39;99149.78;;;-1.02;61.29
54910;BME280;63189;51.240;9.964;2024-01-10T09:13:04;99140.25;;;-0.55;60.66
54910;BME280;63189;51.240;9.964;2024-01-10T09:15:30;99135.13;;;-0.28;58.74
54910;BME280;63189;51.240;9.964;2024-01-10T09:17:55;99135.06;;;-0.03;58.09
54910;BME280;63189;51.240;9.964;2024-01-10T09:20:21;99138.81;;;0.37;56.58
54910;BME280;63189;51.240;9.964;2024-01-10T09:22:46;99136.50;;;0.46;57.41
54910;BME280;63189;51.240;9.964;2024-01-10T09:25:11;99138.50;;;0.56;55.17
54910;BME280;63189;51.240;9.964;2024-01-10T09:27:39;99132.84;;;0.68;54.93
54910;BME280;63189;51.240;9.964;2024-01-10T09:30:06;99141.63;;;0.76;54.35
54910;BME280;63189;51.240;9.964;2024-01-10T09:32:35;99139.56;;;0.63;54.69
54910;BME280;63189;51.240;9.964;2024-01-10T09:35:00;99143.09;;;0.68;55.63
54910;BME280;63189;51.240;9.964;2024-01-10T09:37:26;99131.78;;;0.62;54.49
54910;BME280;63189;51.240;9.964;2024-01-10T09:39:52;99138.44;;;0.53;54.47
54910;BME280;63189;51.240;9.964;2024-01-10T09:42:18;99143.41;;;0.49;54.59
54910;BME280;63189;51.240;9.964;2024-01-10T09:44:45;99138.59;;;0.31;53.69
54910;BME280;63189;51.240;9.964;2024-01-10T09:47:11;99136.03;;;0.31;55.11
54910;BME280;63189;51.240;9.964;2024-01-10T09:49:37;99136.75;;;0.55;55.42
54910;BME280;63189;51.240;9.964;2024-01-10T09:52:04;99133.78;;;0.72;55.27
54910;BME280;63189;51.240;9.964;2024-01-10T09:54:31;99131.84;;;0.95;53.77
54910;BME280;63189;51.240;9.964;2024-01-10T09:56:57;99126.88;;;1.01;52.56
54910;BME280;63189;51.240;9.964;2024-01-10T09:59:22;99129.78;;;1.14;52.59
54910;BME280;63189;51.240;9.964;2024-01-10T10:01:48;99122.69;;;1.37;52.27
54910;BME280;63189;51.240;9.964;2024-01-10T10:04:16;99123.31;;;1.65;52.16
54910;BME280;63189;51.240;9.964;2024-01-10T10:06:43;99118.38;;;1.74;52.02
54910;BME280;63189;51.240;9.964;2024-01-10T10:09:08;99124.56;;;1.81;51.98
54910;BME280;63189;51.240;9.964;2024-01-10T10:11:35;99116.09;;;1.86;50.92
54910;BME280;63189;51.240;9.964;2024-01-10T10:14:18;99112.53;;;2.19;48.75
54910;BME280;63189;51.240;9.964;2024-01-10T10:16:44;99109.09;;;2.18;48.96
54910;BME280;63189;51.240;9.964;2024-01-10T10:19:09;99107.34;;;2.58;50.29
54910;BME280;63189;51.240;9.964;2024-01-10T10:21:36;99111.97;;;2.76;50.03
54910;BME280;63189;51.240;9.964;2024-01-10T10:24:03;99112.97;;;2.82;49.07
54910;BME280;63189;51.240;9.964;2024-01-10T10:26:31;99096.47;;;2.73;49.13
54910;BME280;63189;51.240;9.964;2024-01-10T10:28:57;99119.72;;;2.77;49.18
54910;BME280;63189;51.240;9.964;2024-01-10T10:31:23;99105.75;;;2.65;49.04
54910;BME280;63189;51.240;9.964;2024-01-10T10:33:49;99111.94;;;2.74;49.16
54910;BME280;63189;51.240;9.964;2024-01-10T10:36:18;99110.19;;;2.72;46.38
54910;BME280;63189;51.240;9.964;2024-01-10T10:38:46;99106.19;;;2.42;48.25
54910;BME280;63189;51.240;9.964;2024-01-10T10:41:12;99100.41;;;2.55;48.95
54910;BME280;63189;51.240;9.964;2024-01-10T10:43:39;99095.97;;;2.48;48.77
54910;BME280;63189;51.240;9.964;2024-01-10T10:46:06;99103.00;;;2.15;47.77
54910;BME280;63189;51.240;9.964;2024-01-10T10:48:33;99098.97;;;1.87;48.91
54910;BME280;63189;51.240;9.964;2024-01-10T10:51:08;99086.78;;;1.78;48.89
54910;BME280;63189;51.240;9.964;2024-01-10T10:53:42;99095.19;;;1.71;49.48
54910;BME280;63189;51.240;9.964;2024-01-10T10:56:11;99093.94;;;1.54;50.19
54910;BME280;63189;51.240;9.964;2024-01-10T10:58:43;99086.94;;;1.47;49.60
54910;BME280;63189;51.240;9.964;2024-01-10T11:01:12;99089.78;;;1.24;50.03
54910;BME280;63189;51.240;9.964;2024-01-10T11:03:39;99090.06;;;1.02;51.83
54910;BME280;63189;51.240;9.964;2024-01-10T11:06:06;99090.88;;;0.99;52.08
54910;BME280;63189;51.240;9.964;2024-01-10T11:08:37;99088.06;;;0.90;51.81
54910;BME280;63189;51.240;9.964;2024-01-10T11:11:28;99092.34;;;0.90;50.38
54910;BME280;63189;51.240;9.964;2024-01-10T11:14:19;99091.22;;;0.80;51.77
54910;BME280;63189;51.240;9.964;2024-01-10T11:25:41;99097.19;;;0.47;53.31
54910;BME280;63189;51.240;9.964;2024-01-10T11:28:06;99091.94;;;0.43;53.45
54910;BME280;63189;51.240;9.964;2024-01-10T11:31:00;99087.56;;;0.40;52.86
54910;BME280;63189;51.240;9.964;2024-01-10T11:33:32;99097.63;;;0.33;53.16
54910;BME280;63189;51.240;9.964;2024-01-10T11:36:17;99095.53;;;0.19;52.95
54910;BME280;63189;51.240;9.964;2024-01-10T11:38:50;99089.78;;;0.28;54.20
54910;BME280;63189;51.240;9.964;2024-01-10T11:41:33;99070.91;;;0.24;53.37
54910;BME280;63189;51.240;9.964;2024-01-10T11:46:43;99073.63;;;0.31;53.47
54910;BME280;63189;51.240;9.964;2024-01-10T11:49:11;99084.44;;;0.20;54.43
54910;BME280;63189;51.240;9.964;2024-01-10T11:51:38;99078.38;;;0.17;53.36
54910;BME280;63189;51.240;9.964;2024-01-10T11:54:07;99069.81;;;0.16;53.92
54910;BME280;63189;51.240;9.964;2024-01-10T11:56:38;99079.00;;;0.10;54.18
54910;BME280;63189;51.240;9.964;2024-01-10T11:59:08;99077.94;;;0.02;54.61
54910;BME280;63189;51.240;9.964;2024-01-10T12:01:36;99082.75;;;-0.09;53.35
54910;BME280;63189;51.240;9.964;2024-01-10T12:04:02;99075.25;;;-0.02;54.84
54910;BME280;63189;51.240;9.964;2024-01-10T12:06:29;99074.50;;;0.01;54.90
54910;BME280;63189;51.240;9.964;2024-01-10T12:08:54;99071.88;;;-0.01;54.01
54910;BME280;63189;51.240;9.964;2024-01-10T12:11:19;99066.81;;;0.01;54.78
54910;BME280;63189;51.240;9.964;2024-01-10T12:13:45;99065.88;;;-0.01;54.34
54910;BME280;63189;51.240;9.964;2024-01-10T12:16:12;99066.38;;;-0.13;54.55
54910;BME280;63189;51.240;9.964;2024-01-10T12:18:38;99062.25;;;-0.09;56.06
54910;BME280;63189;51.240;9.964;2024-01-10T12:21:04;99053.53;;;-0.14;53.54
54910;BME280;63189;51.240;9.964;2024-01-10T12:23:30;99057.84;;;-0.13;54.90
54910;BME280;63189;51.240;9.964;2024-01-10T12:25:57;99046.75;;;-0.12;54.82
54910;BME280;63189;51.240;9.964;2024-01-10T12:28:22;99060.59;;;-0.07;55.43
54910;BME280;63189;51.240;9.964;2024-01-10T12:30:48;99051.22;;;-0.07;55.79
54910;BME280;63189;51.240;9.964;2024-01-10T12:33:13;99043.47;;;-0.08;54.86
54910;BME280;63189;51.240;9.964;2024-01-10T12:35:38;99046.97;;;-0.05;55.20
54910;BME280;63189;51.240;9.964;2024-01-10T12:38:07;99048.88;;;0.01;55.65
54910;BME280;63189;51.240;9.964;2024-01-10T12:40:36;99046.38;;;0.04;55.11
54910;BME280;63189;51.240;9.964;2024-01-10T12:43:05;99049.84;;;0.06;54.22
54910;BME280;63189;51.240;9.964;2024-01-10T12:45:30;99052.38;;;0.05;54.54
54910;BME280;63189;51.240;9.964;2024-01-10T12:47:57;99053.47;;;0.13;53.81
54910;BME280;63189;51.240;9.964;2024-01-10T12:50:23;99054.50;;;0.19;53.75
54910;BME280;63189;51.240;9.964;2024-01-10T12:52:50;99049.56;;;0.25;54.34
54910;BME280;63189;51.240;9.964;2024-01-10T12:55:15;99042.50;;;0.18;53.07
54910;BME280;63189;51.240;9.964;2024-01-10T12:57:41;99041.63;;;0.18;54.19
54910;BME280;63189;51.240;9.964;2024-01-10T13:00:07;99044.38;;;0.24;53.75
54910;BME280;63189;51.240;9.964;2024-01-10T13:02:34;99043.53;;;0.23;53.13
54910;BME280;63189;51.240;9.964;2024-01-10T13:05:03;99046.88;;;0.21;52.22
54910;BME280;63189;51.240;9.964;2024-01-10T13:07:28;99053.78;;;0.23;52.80
54910;BME280;63189;51.240;9.964;2024-01-10T13:09:56;99046.94;;;0.24;52.76